Time;durP1;ratioP1;P1;durP2;ratioP2;P2;SDS_P1;SDS_P2;PMS_P1;PMS_P2;Temp;Humidity;BMP_temperature;BMP_pressure;BME280_temperature;BME280_humidity;BME280_pressure;Samples;Min_cycle;Max_cycle;Signal;HPM_P1;HPM_P2
2022/08/23 00:01:48;;;;;;;6.78;2.30;;;18.50;99.30;;;;;;5043759;28;20232;-80
2022/08/23 00:04:18;;;;;;;7.77;2.50;;;18.40;99.50;;;;;;5050520;28;20796;-80
2022/08/23 00:06:45;;;;;;;4.50;2.45;;;18.40;99.60;;;;;;5031458;28;20247;-80
2022/08/23 00:09:13;;;;;;;2.60;1.98;;;18.30;99.70;;;;;;5041682;28;20332;-79
2022/08/23 00:11:42;;;;;;;5.83;2.27;;;18.30;99.60;;;;;;5029307;28;20238;-79
2022/08/23 00:14:11;;;;;;;4.97;2.30;;;18.30;99.70;;;;;;5033508;28;20912;-79
2022/08/23 00:16:38;;;;;;;8.53;2.43;;;18.30;99.80;;;;;;5039145;28;20226;-80
2022/08/23 00:19:07;;;;;;;4.80;2.37;;;18.30;99.80;;;;;;5041816;28;20232;-79
2022/08/23 00:21:35;;;;;;;5.03;2.43;;;18.20;99.90;;;;;;5045757;28;20240;-80
2022/08/23 00:24:02;;;;;;;4.25;2.08;;;18.20;99.90;;;;;;5043986;28;20236;-80
2022/08/23 00:26:55;;;;;;;3.90;2.13;;;18.20;99.90;;;;;;5045114;28;20338;-79
2022/08/23 00:29:24;;;;;;;6.23;2.57;;;18.10;99.90;;;;;;5045151;28;20232;-79
2022/08/23 00:31:52;;;;;;;3.85;2.03;;;18.10;99.90;;;;;;5044616;28;20293;-79
2022/08/23 00:34:20;;;;;;;4.07;2.17;;;18.10;99.90;;;;;;5045810;28;20746;-80
2022/08/23 00:36:48;;;;;;;3.20;2.53;;;18.10;99.90;;;;;;5046231;28;20323;-80
2022/08/23 00:39:15;;;;;;;3.97;2.07;;;18.00;99.90;;;;;;5044559;28;20224;-79
2022/08/23 00:41:42;;;;;;;4.50;2.33;;;18.00;99.90;;;;;;5029950;28;20930;-79
2022/08/23 00:49:47;;;;;;;4.07;2.50;;;18.00;99.90;;;;;;5037176;28;20228;-79
2022/08/23 00:52:19;;;;;;;4.57;2.10;;;18.00;99.90;;;;;;5042571;28;20437;-79
2022/08/23 00:54:47;;;;;;;6.95;2.65;;;18.00;99.90;;;;;;5044004;28;20238;-79
2022/08/23 00:57:18;;;;;;;6.33;2.40;;;18.00;99.90;;;;;;5043795;28;20228;-79
2022/08/23 00:59:45;;;;;;;5.78;2.42;;;18.00;99.90;;;;;;5046871;28;20236;-79
2022/08/23 01:02:13;;;;;;;4.37;2.33;;;18.00;99.90;;;;;;5046002;28;20239;-79
2022/08/23 01:04:44;;;;;;;5.93;2.77;;;18.00;99.90;;;;;;5036147;28;20292;-80
2022/08/23 01:07:19;;;;;;;4.63;2.47;;;18.10;99.90;;;;;;5043927;28;20228;-80
2022/08/23 01:09:49;;;;;;;6.90;2.30;;;18.10;99.90;;;;;;5032410;28;20231;-80
2022/08/23 01:12:19;;;;;;;5.80;2.23;;;18.10;99.90;;;;;;5025416;28;20232;-79
2022/08/23 01:14:51;;;;;;;4.37;2.40;;;18.10;99.90;;;;;;5043760;28;20228;-79
2022/08/23 01:17:23;;;;;;;6.43;2.63;;;18.10;99.90;;;;;;5044997;28;20242;-79
2022/08/23 01:19:55;;;;;;;5.57;2.53;;;18.10;99.90;;;;;;5044222;28;20238;-79
2022/08/23 01:22:27;;;;;;;4.13;2.63;;;18.10;99.90;;;;;;5044286;28;21001;-79
2022/08/23 01:24:56;;;;;;;5.33;2.47;;;18.10;99.90;;;;;;5044508;28;20228;-80
2022/08/23 01:27:24;;;;;;;3.22;2.30;;;18.10;99.90;;;;;;5042687;28;20231;-80
2022/08/23 01:29:51;;;;;;;5.32;2.80;;;18.20;99.90;;;;;;5044132;28;20426;-80
2022/08/23 01:32:18;;;;;;;3.80;2.53;;;18.10;99.90;;;;;;5045633;28;20232;-80
2022/08/23 01:34:45;;;;;;;4.70;2.60;;;18.10;99.90;;;;;;5043253;28;20622;-80
2022/08/23 01:37:13;;;;;;;5.70;2.60;;;18.10;99.90;;;;;;5041721;28;20312;-78
2022/08/23 01:39:40;;;;;;;8.43;2.50;;;18.10;99.90;;;;;;5042281;28;20223;-78
2022/08/23 01:42:10;;;;;;;4.85;2.63;;;18.10;99.90;;;;;;5041669;28;20329;-78
2022/08/23 01:44:36;;;;;;;5.43;2.55;;;18.10;99.90;;;;;;5042464;28;20234;-80
2022/08/23 01:47:05;;;;;;;3.53;2.42;;;18.10;99.90;;;;;;5030370;28;20798;-78
2022/08/23 01:49:33;;;;;;;4.35;2.42;;;18.10;99.90;;;;;;5042719;28;20232;-78
2022/08/23 01:52:00;;;;;;;6.32;2.53;;;18.10;99.90;;;;;;5046149;28;20330;-78
2022/08/23 01:54:26;;;;;;;4.88;2.50;;;18.10;99.90;;;;;;5045499;28;20244;-80
2022/08/23 01:56:54;;;;;;;2.97;2.10;;;18.00;99.90;;;;;;5047748;28;20228;-79
2022/08/23 01:59:23;;;;;;;4.28;2.42;;;18.00;99.90;;;;;;5046617;28;20216;-78
2022/08/23 02:01:53;;;;;;;3.93;2.43;;;18.00;99.90;;;;;;5046250;28;20732;-79
2022/08/23 02:04:21;;;;;;;4.80;2.75;;;18.00;99.90;;;;;;5046263;28;20231;-78
2022/08/23 02:06:48;;;;;;;3.92;2.58;;;18.00;99.90;;;;;;5046019;28;20228;-78
2022/08/23 02:09:19;;;;;;;6.35;2.67;;;18.00;99.90;;;;;;5046411;28;20919;-79
2022/08/23 02:11:47;;;;;;;4.87;2.80;;;18.00;99.90;;;;;;5047461;28;20269;-80
2022/08/23 02:14:18;;;;;;;7.63;2.60;;;18.00;99.90;;;;;;5046906;28;20228;-81
2022/08/23 02:16:55;;;;;;;3.67;2.33;;;18.00;99.90;;;;;;5047111;28;20238;-80
2022/08/23 02:19:22;;;;;;;5.28;2.40;;;18.00;99.90;;;;;;5046474;28;20238;-79
2022/08/23 02:21:49;;;;;;;5.07;3.00;;;18.00;99.90;;;;;;5046248;28;20730;-80
2022/08/23 02:24:17;;;;;;;4.35;2.58;;;17.90;99.90;;;;;;5046639;28;21101;-80
2022/08/23 02:26:46;;;;;;;6.68;2.78;;;17.90;99.90;;;;;;5046503;28;20331;-79
2022/08/23 02:29:15;;;;;;;4.03;2.20;;;17.90;99.90;;;;;;5046331;28;20228;-80
2022/08/23 02:31:44;;;;;;;6.13;3.00;;;17.90;99.90;;;;;;5048491;28;20250;-80
2022/08/23 02:34:12;;;;;;;6.47;2.83;;;17.90;99.90;;;;;;5044572;28;20238;-79
2022/08/23 02:36:40;;;;;;;4.57;2.53;;;17.90;99.90;;;;;;5045923;28;20240;-79
2022/08/23 02:39:08;;;;;;;5.23;2.70;;;17.90;99.90;;;;;;5039953;28;20224;-79
2022/08/23 02:41:36;;;;;;;5.97;3.03;;;17.80;99.90;;;;;;5043279;28;20559;-81
2022/08/23 02:44:04;;;;;;;5.57;2.77;;;17.80;99.90;;;;;;5038565;28;20981;-81
2022/08/23 02:46:30;;;;;;;6.23;3.17;;;17.80;99.90;;;;;;5043530;28;20238;-80
2022/08/23 02:48:57;;;;;;;6.10;3.00;;;17.80;99.90;;;;;;5056291;28;20220;-80
2022/08/23 02:51:26;;;;;;;4.77;2.80;;;17.80;99.90;;;;;;5040325;28;20227;-80
2022/08/23 02:53:53;;;;;;;3.50;2.53;;;17.80;99.90;;;;;;5045478;28;20224;-79
2022/08/23 02:56:22;;;;;;;5.17;2.67;;;17.70;99.90;;;;;;5047003;28;20282;-79
2022/08/23 02:58:50;;;;;;;4.43;3.13;;;17.70;99.90;;;;;;5046596;28;20607;-80
2022/08/23 03:01:21;;;;;;;5.20;2.60;;;17.70;99.90;;;;;;5044908;28;20237;-79
2022/08/23 03:03:50;;;;;;;4.97;2.57;;;17.70;99.90;;;;;;5046234;28;20259;-80
2022/08/23 03:06:17;;;;;;;5.03;2.90;;;17.70;99.90;;;;;;5030041;28;20259;-80
2022/08/23 03:08:46;;;;;;;4.67;2.90;;;17.70;99.90;;;;;;5027580;28;20259;-80
2022/08/23 03:11:14;;;;;;;6.70;3.10;;;17.70;99.90;;;;;;5028717;28;20236;-80
2022/08/23 03:13:42;;;;;;;6.10;3.13;;;17.70;99.90;;;;;;5027413;28;20668;-80
2022/08/23 03:16:10;;;;;;;5.57;3.03;;;17.70;99.90;;;;;;5027874;28;20233;-80
2022/08/23 03:18:43;;;;;;;4.33;2.63;;;17.70;99.90;;;;;;5027682;28;20232;-80
2022/08/23 03:21:11;;;;;;;6.15;2.70;;;17.70;99.90;;;;;;5030520;28;20277;-79
2022/08/23 03:23:39;;;;;;;6.40;2.80;;;17.60;99.90;;;;;;5041667;28;20278;-79
2022/08/23 03:26:10;;;;;;;5.50;2.83;;;17.60;99.90;;;;;;5047278;28;20248;-78
2022/08/23 03:28:39;;;;;;;4.40;2.63;;;17.60;99.90;;;;;;5045740;28;20984;-80
2022/08/23 03:31:08;;;;;;;5.77;2.97;;;17.60;99.90;;;;;;5045482;28;20314;-78
2022/08/23 03:33:43;;;;;;;3.77;2.80;;;17.60;99.90;;;;;;5044901;28;20604;-79
2022/08/23 03:36:11;;;;;;;4.40;3.20;;;17.60;99.90;;;;;;5059429;23;21099;-79
2022/08/23 03:38:39;;;;;;;4.57;3.00;;;17.60;99.90;;;;;;5042717;28;20238;-79
2022/08/23 03:41:09;;;;;;;5.53;2.57;;;17.50;99.90;;;;;;5055492;28;20851;-79
2022/08/23 03:43:37;;;;;;;4.32;2.70;;;17.50;99.90;;;;;;5033815;28;20322;-78
2022/08/23 03:46:06;;;;;;;3.50;2.60;;;17.50;99.90;;;;;;5044380;28;20244;-78
2022/08/23 03:48:36;;;;;;;5.10;3.00;;;17.50;99.90;;;;;;5020492;28;20224;-78
2022/08/23 03:51:04;;;;;;;4.90;2.63;;;17.50;99.90;;;;;;5019477;28;20304;-79
2022/08/23 03:53:30;;;;;;;5.57;2.93;;;17.50;99.90;;;;;;5020032;28;20240;-80
2022/08/23 03:55:57;;;;;;;5.33;2.90;;;17.50;99.90;;;;;;5022922;28;20304;-81
2022/08/23 03:58:26;;;;;;;4.30;3.27;;;17.50;99.90;;;;;;5021089;28;20244;-81
2022/08/23 04:00:54;;;;;;;7.53;3.40;;;17.50;99.90;;;;;;5030490;28;20212;-80
2022/08/23 04:03:20;;;;;;;4.00;2.67;;;17.40;99.90;;;;;;5027697;28;20235;-79
2022/08/23 04:06:05;;;;;;;4.90;2.85;;;17.40;99.90;;;;;;5016555;28;20345;-78
2022/08/23 04:08:32;;;;;;;3.87;2.53;;;17.40;99.90;;;;;;5022147;28;20288;-80
2022/08/23 04:10:59;;;;;;;4.27;2.60;;;17.40;99.90;;;;;;5019890;28;20246;-79
2022/08/23 04:13:27;;;;;;;6.13;2.77;;;17.40;99.90;;;;;;5018555;28;20260;-80
2022/08/23 04:15:55;;;;;;;4.77;2.83;;;17.40;99.90;;;;;;5023553;28;20797;-80
2022/08/23 04:18:21;;;;;;;3.90;2.93;;;17.40;99.90;;;;;;5023217;28;20308;-80
2022/08/23 04:20:49;;;;;;;7.50;2.90;;;17.30;99.90;;;;;;5020418;28;20722;-81
2022/08/23 04:23:20;;;;;;;4.77;2.93;;;17.30;99.90;;;;;;5006456;28;20222;-81
2022/08/23 04:25:52;;;;;;;3.83;2.87;;;17.30;99.90;;;;;;5005487;28;20244;-81
2022/08/23 04:28:19;;;;;;;6.90;3.17;;;17.30;99.90;;;;;;5002809;28;20232;-80
2022/08/23 04:30:54;;;;;;;3.47;2.97;;;17.30;99.90;;;;;;4992718;28;20268;-80
2022/08/23 04:33:21;;;;;;;4.33;2.80;;;17.30;99.90;;;;;;5003470;28;21100;-80
2022/08/23 04:35:48;;;;;;;4.20;2.97;;;17.30;99.90;;;;;;5015261;28;20744;-79
2022/08/23 04:38:15;;;;;;;4.90;3.30;;;17.30;99.90;;;;;;5028935;28;20715;-77
2022/08/23 04:43:27;;;;;;;3.83;2.83;;;17.30;99.90;;;;;;5032631;28;20290;-78
2022/08/23 04:45:58;;;;;;;5.10;2.90;;;17.30;99.90;;;;;;5021169;28;20727;-78
2022/08/23 04:48:32;;;;;;;5.13;3.00;;;17.30;99.90;;;;;;5020137;28;20694;-80
2022/08/23 04:50:59;;;;;;;3.57;2.60;;;17.30;99.90;;;;;;5023600;28;20221;-79
2022/08/23 04:53:28;;;;;;;4.40;2.70;;;17.30;99.90;;;;;;5018056;28;20213;-79
2022/08/23 04:56:06;;;;;;;3.97;2.73;;;17.30;99.90;;;;;;5017621;28;20221;-80
2022/08/23 04:58:33;;;;;;;4.60;3.00;;;17.30;99.90;;;;;;5022311;28;20223;-80
2022/08/23 05:01:03;;;;;;;3.90;2.67;;;17.30;99.90;;;;;;5020636;28;20220;-79
2022/08/23 05:03:31;;;;;;;4.73;2.60;;;17.30;99.90;;;;;;5025108;28;20224;-79
2022/08/23 05:05:59;;;;;;;7.67;3.17;;;17.30;99.90;;;;;;5023783;28;20224;-78
2022/08/23 05:08:33;;;;;;;3.37;2.43;;;17.40;99.90;;;;;;5032030;28;20225;-79
2022/08/23 05:11:02;;;;;;;4.53;2.53;;;17.40;99.90;;;;;;5029232;28;20416;-79
2022/08/23 05:13:32;;;;;;;3.77;2.30;;;17.40;99.90;;;;;;5004532;28;20244;-79
2022/08/23 05:16:01;;;;;;;4.33;2.70;;;17.40;99.90;;;;;;5013802;28;20294;-79
2022/08/23 05:18:33;;;;;;;4.57;2.73;;;17.40;99.90;;;;;;5023493;28;20227;-79
2022/08/23 05:21:01;;;;;;;4.47;2.70;;;17.40;99.90;;;;;;5014913;28;20311;-80
2022/08/23 05:23:28;;;;;;;5.37;2.93;;;17.40;99.90;;;;;;5018810;28;20692;-79
2022/08/23 05:26:02;;;;;;;5.17;2.50;;;17.40;99.90;;;;;;5027137;28;20311;-79
2022/08/23 05:28:38;;;;;;;4.20;2.38;;;17.50;99.90;;;;;;5020145;28;20311;-80
2022/08/23 05:31:10;;;;;;;6.20;2.67;;;17.50;99.90;;;;;;5012951;28;20221;-77
2022/08/23 05:33:45;;;;;;;5.23;2.60;;;17.50;99.90;;;;;;5013428;28;20256;-77
2022/08/23 05:36:13;;;;;;;7.13;2.60;;;17.50;99.90;;;;;;5022608;28;20594;-78
2022/08/23 05:38:42;;;;;;;3.93;2.43;;;17.50;99.90;;;;;;5016967;28;20279;-79
2022/08/23 05:41:10;;;;;;;3.13;2.43;;;17.50;99.90;;;;;;5032442;28;20221;-79
2022/08/23 05:43:37;;;;;;;5.80;2.70;;;17.60;99.90;;;;;;5019797;28;20238;-79
2022/08/23 05:46:09;;;;;;;4.40;2.93;;;17.60;99.90;;;;;;5020283;28;20232;-78
2022/08/23 05:48:42;;;;;;;4.97;2.50;;;17.60;99.90;;;;;;5028851;28;20271;-78
2022/08/23 05:51:10;;;;;;;4.77;2.60;;;17.70;99.90;;;;;;5013094;28;20629;-78
2022/08/23 05:53:38;;;;;;;5.67;2.70;;;17.70;99.90;;;;;;5014399;28;20272;-78
2022/08/23 05:56:18;;;;;;;5.23;2.80;;;17.80;99.90;;;;;;5010483;28;20239;-79
2022/08/23 05:58:46;;;;;;;5.65;3.05;;;17.90;99.90;;;;;;5013290;28;20708;-78
2022/08/23 06:01:15;;;;;;;5.63;2.72;;;18.00;99.90;;;;;;5019425;28;20216;-78
2022/08/23 06:03:43;;;;;;;5.27;2.50;;;18.10;99.90;;;;;;5015426;28;20247;-78
2022/08/23 06:06:11;;;;;;;3.97;2.40;;;18.20;99.90;;;;;;5017536;28;20252;-78
2022/08/23 06:08:39;;;;;;;8.27;2.63;;;18.30;99.90;;;;;;5011540;28;20238;-77
2022/08/23 06:11:10;;;;;;;3.58;2.15;;;18.30;99.90;;;;;;5027238;28;20225;-78
2022/08/23 06:13:44;;;;;;;3.43;2.00;;;18.40;99.90;;;;;;5013819;28;20696;-78
2022/08/23 06:16:14;;;;;;;3.38;2.10;;;18.60;99.90;;;;;;5018371;28;20227;-77
2022/08/23 06:18:43;;;;;;;3.13;2.20;;;18.60;99.90;;;;;;5014663;28;20245;-80
2022/08/23 06:21:25;;;;;;;5.72;2.00;;;18.70;99.90;;;;;;5023504;28;20249;-80
2022/08/23 06:23:52;;;;;;;3.63;2.00;;;18.90;99.90;;;;;;5018725;28;20320;-78
2022/08/23 06:26:23;;;;;;;4.57;2.08;;;19.00;99.60;;;;;;5015207;28;20225;-77
2022/08/23 06:28:53;;;;;;;3.90;2.10;;;19.20;99.50;;;;;;5012294;28;20316;-78
2022/08/23 06:34:17;;;;;;;4.63;1.98;;;19.50;98.50;;;;;;5012968;28;20216;-78
2022/08/23 06:37:02;;;;;;;3.83;2.33;;;19.60;98.50;;;;;;5014615;28;20788;-78
2022/08/23 06:39:47;;;;;;;3.00;2.03;;;19.70;98.30;;;;;;5019417;28;20795;-78
2022/08/23 06:42:53;;;;;;;3.78;2.15;;;19.90;98.30;;;;;;4995827;28;20391;-78
2022/08/23 06:45:25;;;;;;;4.00;2.00;;;20.00;98.10;;;;;;5021665;28;20783;-82
2022/08/23 06:47:56;;;;;;;3.60;2.00;;;20.10;97.70;;;;;;5022012;28;20220;-81
2022/08/23 06:50:23;;;;;;;2.63;1.92;;;20.10;97.20;;;;;;5027843;28;20220;-78
2022/08/23 06:53:10;;;;;;;3.65;2.05;;;20.20;96.90;;;;;;5028093;28;20363;-78
2022/08/23 06:55:50;;;;;;;3.95;1.88;;;20.20;97.20;;;;;;5016017;28;20584;-79
2022/08/23 06:58:21;;;;;;;4.13;2.28;;;20.20;97.00;;;;;;5021222;28;20622;-79
2022/08/23 07:01:11;;;;;;;3.55;2.17;;;20.20;96.60;;;;;;5017109;28;20216;-78
2022/08/23 07:03:59;;;;;;;4.40;2.03;;;20.10;96.70;;;;;;5015070;28;20231;-79
2022/08/23 07:06:44;;;;;;;3.30;2.08;;;20.10;96.70;;;;;;5022675;28;20244;-78
2022/08/23 07:09:11;;;;;;;4.45;1.98;;;20.00;96.90;;;;;;5008563;28;20311;-78
2022/08/23 07:11:38;;;;;;;8.40;2.38;;;20.00;96.90;;;;;;5028233;28;20323;-78
2022/08/23 07:14:10;;;;;;;5.30;2.08;;;20.00;97.10;;;;;;5015381;28;20216;-79
2022/08/23 07:16:42;;;;;;;3.05;2.03;;;19.90;97.10;;;;;;5016243;28;20240;-78
2022/08/23 07:19:10;;;;;;;5.88;2.15;;;19.80;97.20;;;;;;5016709;28;20224;-79
2022/08/23 07:21:37;;;;;;;4.70;2.22;;;19.80;96.90;;;;;;5022377;28;20906;-78
2022/08/23 07:24:05;;;;;;;3.78;2.13;;;19.80;96.90;;;;;;5014510;28;20304;-77
2022/08/23 07:26:35;;;;;;;3.65;2.13;;;19.80;96.50;;;;;;5015231;28;20309;-78
2022/08/23 07:29:03;;;;;;;4.20;1.83;;;19.80;96.90;;;;;;5031620;28;20231;-78
2022/08/23 07:31:34;;;;;;;3.80;2.10;;;19.80;96.30;;;;;;5026875;28;20676;-78
2022/08/23 07:34:03;;;;;;;4.35;2.17;;;19.80;96.20;;;;;;5031646;28;20298;-78
2022/08/23 07:36:34;;;;;;;4.35;2.13;;;19.90;96.40;;;;;;5020257;28;20232;-78
2022/08/23 07:39:01;;;;;;;2.85;2.20;;;20.00;96.10;;;;;;5017839;28;20222;-80
2022/08/23 07:41:31;;;;;;;3.58;1.92;;;20.20;96.40;;;;;;5004832;28;20278;-79
2022/08/23 07:44:00;;;;;;;3.80;2.35;;;20.50;96.50;;;;;;5025507;28;20212;-80
2022/08/23 07:46:27;;;;;;;3.17;1.90;;;21.00;96.50;;;;;;5027563;28;20259;-81
2022/08/23 07:48:57;;;;;;;3.13;1.50;;;21.60;94.70;;;;;;5024185;28;20319;-82
2022/08/23 07:51:30;;;;;;;3.22;1.95;;;22.30;94.30;;;;;;5020568;28;20224;-82
2022/08/23 07:54:00;;;;;;;4.03;1.85;;;22.80;92.70;;;;;;5017308;28;20217;-80
2022/08/23 07:56:27;;;;;;;3.55;1.70;;;23.40;93.40;;;;;;5027094;28;20319;-81
2022/08/23 07:59:00;;;;;;;2.83;1.48;;;23.90;92.50;;;;;;5028783;28;20217;-80
2022/08/23 08:01:33;;;;;;;2.88;1.52;;;24.40;91.90;;;;;;5022300;28;20224;-84
2022/08/23 08:04:03;;;;;;;2.35;1.40;;;24.90;89.30;;;;;;5021942;28;20288;-87
2022/08/23 08:06:34;;;;;;;2.65;1.50;;;25.40;86.60;;;;;;5018035;28;20310;-85
2022/08/23 08:09:04;;;;;;;4.22;1.30;;;25.70;85.60;;;;;;5013509;28;20586;-85
2022/08/23 08:11:36;;;;;;;4.82;1.40;;;25.90;80.30;;;;;;5018518;28;20468;-81
2022/08/23 08:14:08;;;;;;;2.22;1.33;;;26.10;82.20;;;;;;5017305;28;20271;-81
2022/08/23 08:16:40;;;;;;;2.63;1.60;;;26.30;81.20;;;;;;5016512;28;20948;-81
2022/08/23 08:19:11;;;;;;;1.85;1.40;;;26.50;81.10;;;;;;5010495;28;20861;-80
2022/08/23 08:21:58;;;;;;;2.30;1.33;;;26.60;78.50;;;;;;5019879;28;20372;-81
2022/08/23 08:25:01;;;;;;;3.42;1.40;;;26.80;79.20;;;;;;4938893;28;20254;-80
2022/08/23 08:27:28;;;;;;;2.60;1.27;;;27.10;80.30;;;;;;5001643;28;20229;-81
2022/08/23 08:29:55;;;;;;;3.35;1.27;;;27.30;78.90;;;;;;5023480;28;20279;-80
2022/08/23 08:32:21;;;;;;;2.28;1.30;;;27.50;78.20;;;;;;5022117;28;20288;-81
2022/08/23 08:34:48;;;;;;;3.53;1.40;;;27.60;76.90;;;;;;5022208;28;20229;-81
2022/08/23 08:37:15;;;;;;;2.67;1.38;;;27.80;75.90;;;;;;5017682;28;20313;-82
2022/08/23 08:39:44;;;;;;;2.85;1.45;;;27.80;76.60;;;;;;5015208;28;20751;-81
2022/08/23 08:42:30;;;;;;;3.95;1.70;;;28.00;76.40;;;;;;5029550;28;20271;-81
2022/08/23 08:45:02;;;;;;;3.67;1.45;;;28.20;75.60;;;;;;5022805;28;20232;-81
2022/08/23 08:47:43;;;;;;;3.10;1.35;;;28.40;74.40;;;;;;5024028;28;20861;-81
2022/08/23 08:50:17;;;;;;;2.80;1.30;;;28.60;73.30;;;;;;5023916;28;20308;-81
2022/08/23 08:52:49;;;;;;;3.83;1.58;;;28.70;73.80;;;;;;5020173;28;20236;-81
2022/08/23 08:55:31;;;;;;;6.90;1.90;;;28.80;71.10;;;;;;5012551;28;20240;-82
2022/08/23 08:58:01;;;;;;;6.38;1.58;;;28.90;73.40;;;;;;5024422;28;20804;-80
2022/08/23 09:00:31;;;;;;;3.70;1.52;;;29.10;70.80;;;;;;5025733;28;20216;-81
2022/08/23 09:02:59;;;;;;;2.08;1.50;;;29.20;71.90;;;;;;5018090;28;20221;-80
2022/08/23 09:05:30;;;;;;;3.45;2.00;;;29.30;73.00;;;;;;5035808;28;20233;-81
2022/08/23 09:08:10;;;;;;;3.65;1.60;;;29.40;71.20;;;;;;5020922;28;20235;-81
2022/08/23 09:10:50;;;;;;;3.97;1.55;;;29.50;69.50;;;;;;5041196;28;20223;-82
2022/08/23 09:13:47;;;;;;;2.67;1.52;;;29.60;70.00;;;;;;5020052;28;20213;-82
2022/08/23 09:16:29;;;;;;;3.22;1.58;;;29.80;70.70;;;;;;4982038;28;20257;-82
2022/08/23 09:19:00;;;;;;;3.28;1.70;;;30.00;70.00;;;;;;4997498;28;20220;-81
2022/08/23 09:21:27;;;;;;;2.10;1.20;;;30.40;71.40;;;;;;5017031;28;20282;-81
2022/08/23 09:23:54;;;;;;;3.10;1.55;;;30.70;70.30;;;;;;5022770;28;20974;-80
2022/08/23 09:26:30;;;;;;;3.70;1.52;;;31.20;69.40;;;;;;5016298;28;20251;-81
2022/08/23 09:29:04;;;;;;;3.08;1.50;;;31.50;66.90;;;;;;5038319;28;20275;-81
2022/08/23 09:31:40;;;;;;;3.97;1.90;;;31.80;66.10;;;;;;5037807;28;20295;-81
2022/08/23 09:34:08;;;;;;;4.68;1.50;;;32.00;65.30;;;;;;5031010;28;20541;-82
2022/08/23 09:36:45;;;;;;;3.17;1.65;;;32.30;65.20;;;;;;5014844;28;20247;-84
2022/08/23 09:39:26;;;;;;;4.65;1.63;;;32.40;62.30;;;;;;5013185;28;20224;-85
2022/08/23 09:41:54;;;;;;;3.88;1.70;;;32.40;61.20;;;;;;4990169;28;20449;-84
2022/08/23 09:44:37;;;;;;;2.85;1.60;;;32.40;61.10;;;;;;5012095;28;20606;-86
2022/08/23 09:47:11;;;;;;;3.20;1.50;;;32.40;62.00;;;;;;5016636;28;20221;-84
2022/08/23 09:49:43;;;;;;;3.35;1.60;;;32.50;61.80;;;;;;5015287;28;20232;-84
2022/08/23 09:52:20;;;;;;;2.38;1.55;;;32.40;59.60;;;;;;5016934;28;20221;-84
2022/08/23 09:54:56;;;;;;;3.35;1.80;;;32.40;59.60;;;;;;5012447;28;20704;-84
2022/08/23 09:57:27;;;;;;;2.60;1.70;;;32.40;59.60;;;;;;5022186;28;20402;-84
2022/08/23 10:00:00;;;;;;;2.08;1.38;;;32.30;58.90;;;;;;5025507;28;20661;-86
2022/08/23 10:02:31;;;;;;;3.03;1.20;;;32.30;59.40;;;;;;5017519;28;20680;-85
2022/08/23 10:05:05;;;;;;;2.78;1.40;;;32.40;59.10;;;;;;5033790;28;20220;-85
2022/08/23 10:07:38;;;;;;;2.30;1.33;;;32.40;58.30;;;;;;5022855;28;20482;-85
2022/08/23 10:10:23;;;;;;;3.63;1.40;;;32.40;56.70;;;;;;5017310;28;20448;-85
2022/08/23 10:12:52;;;;;;;2.15;1.42;;;32.40;57.90;;;;;;5024693;28;20396;-84
2022/08/23 10:15:26;;;;;;;4.40;1.20;;;32.40;58.40;;;;;;5020923;28;20274;-84
2022/08/23 10:18:02;;;;;;;2.65;1.65;;;32.50;58.00;;;;;;5023292;28;20299;-84
2022/08/23 10:20:37;;;;;;;2.53;1.45;;;32.60;56.50;;;;;;5024806;28;20236;-86
2022/08/23 10:23:15;;;;;;;1.83;1.20;;;32.80;56.70;;;;;;5031827;28;20217;-85
2022/08/23 10:25:55;;;;;;;4.22;1.42;;;33.00;57.10;;;;;;5004418;28;20402;-84
2022/08/23 10:31:30;;;;;;;2.08;1.17;;;33.30;56.20;;;;;;5020304;28;20221;-85
2022/08/23 10:34:23;;;;;;;4.70;1.23;;;33.40;55.50;;;;;;5023569;28;20217;-84
2022/08/23 10:37:00;;;;;;;4.20;1.10;;;33.60;55.10;;;;;;5017771;28;20944;-86
2022/08/23 10:39:29;;;;;;;1.77;1.25;;;33.60;54.70;;;;;;5025548;28;20315;-85
2022/08/23 10:42:03;;;;;;;2.00;1.33;;;33.80;55.00;;;;;;5026166;28;20221;-84
2022/08/23 10:44:34;;;;;;;2.15;1.30;;;33.90;54.20;;;;;;5029433;28;20235;-85
2022/08/23 10:47:16;;;;;;;3.10;1.30;;;34.10;54.00;;;;;;5023812;28;20221;-85
2022/08/23 10:49:47;;;;;;;3.00;1.58;;;34.30;54.00;;;;;;5022913;28;20473;-84
2022/08/23 10:52:20;;;;;;;2.63;1.35;;;34.60;53.90;;;;;;5023885;28;20232;-85
2022/08/23 10:54:59;;;;;;;1.52;1.17;;;34.90;52.40;;;;;;5020316;28;20285;-85
2022/08/23 10:57:32;;;;;;;1.73;1.10;;;35.10;51.80;;;;;;5014601;28;20229;-84
2022/08/23 11:00:01;;;;;;;2.08;1.20;;;35.30;50.20;;;;;;5034497;28;20226;-85
2022/08/23 11:02:40;;;;;;;2.13;1.17;;;35.40;50.80;;;;;;5019839;28;20217;-84
2022/08/23 11:05:25;;;;;;;2.72;1.10;;;35.40;50.70;;;;;;5019139;28;20503;-85
2022/08/23 11:08:02;;;;;;;0.98;0.88;;;35.50;49.90;;;;;;5021186;28;20228;-85
2022/08/23 11:10:33;;;;;;;1.77;1.10;;;35.60;48.70;;;;;;5032557;28;20241;-84
2022/08/23 11:13:04;;;;;;;1.70;1.00;;;35.90;48.50;;;;;;5020931;28;20221;-85
2022/08/23 11:15:38;;;;;;;6.53;1.10;;;36.00;48.00;;;;;;5020159;28;20225;-85
2022/08/23 11:18:09;;;;;;;1.58;1.00;;;36.10;47.10;;;;;;5023534;28;20415;-83
2022/08/23 11:21:02;;;;;;;1.50;1.05;;;36.30;46.50;;;;;;5025380;28;20224;-84
2022/08/23 11:24:13;;;;;;;1.70;1.10;;;36.30;46.70;;;;;;5028168;28;20323;-85
2022/08/23 11:27:04;;;;;;;2.72;0.88;;;36.40;46.30;;;;;;5039019;28;20248;-83
2022/08/23 11:29:39;;;;;;;2.35;0.90;;;36.50;45.30;;;;;;5026720;28;20228;-84
2022/08/23 11:32:40;;;;;;;2.70;1.10;;;36.60;45.60;;;;;;5025452;28;20252;-83
2022/08/23 11:35:31;;;;;;;6.88;1.00;;;36.60;45.00;;;;;;5025967;28;20221;-85
2022/08/23 11:38:02;;;;;;;1.70;1.30;;;36.70;44.40;;;;;;5036685;28;20225;-84
2022/08/23 11:40:57;;;;;;;1.65;1.10;;;36.60;43.20;;;;;;5039428;28;20224;-84
2022/08/23 11:43:34;;;;;;;3.78;0.98;;;36.40;42.90;;;;;;5007827;28;20329;-84
2022/08/23 11:46:34;;;;;;;2.42;1.15;;;35.90;42.70;;;;;;5024859;28;20251;-83
2022/08/23 11:49:34;;;;;;;1.20;0.82;;;35.40;42.50;;;;;;5004929;28;20439;-84
2022/08/23 11:52:18;;;;;;;1.27;1.10;;;35.00;43.70;;;;;;5021754;28;20210;-83
2022/08/23 11:55:06;;;;;;;1.30;0.98;;;34.60;44.60;;;;;;5036702;28;20311;-83
2022/08/23 11:57:53;;;;;;;2.25;1.10;;;34.50;44.60;;;;;;5011852;28;20240;-85
2022/08/23 12:00:23;;;;;;;4.82;1.10;;;34.40;45.30;;;;;;5025656;28;20858;-81
2022/08/23 12:03:01;;;;;;;2.80;1.10;;;34.50;45.20;;;;;;5031315;28;20687;-81
2022/08/23 12:06:01;;;;;;;2.25;1.20;;;34.60;44.30;;;;;;5025190;28;20928;-83
2022/08/23 12:08:33;;;;;;;2.58;1.05;;;34.70;43.90;;;;;;5023927;28;20221;-83
2022/08/23 12:11:06;;;;;;;2.53;1.15;;;34.80;43.70;;;;;;5023435;28;20324;-83
2022/08/23 12:13:51;;;;;;;2.17;1.15;;;34.90;44.00;;;;;;5027703;28;21003;-83
2022/08/23 12:16:41;;;;;;;1.63;1.00;;;34.80;44.20;;;;;;5038025;28;20232;-82
2022/08/23 12:19:24;;;;;;;1.95;1.30;;;34.90;44.20;;;;;;5012838;28;20353;-83
2022/08/23 12:21:54;;;;;;;6.20;1.30;;;34.90;43.90;;;;;;5030630;28;20259;-83
2022/08/23 12:24:32;;;;;;;2.00;1.10;;;35.00;44.10;;;;;;5033552;28;20231;-82
2022/08/23 12:27:06;;;;;;;1.42;1.00;;;35.10;44.10;;;;;;5029642;28;20289;-83
2022/08/23 12:29:55;;;;;;;1.88;1.23;;;35.20;43.20;;;;;;5029621;28;21029;-81
2022/08/23 12:32:31;;;;;;;3.30;1.30;;;35.20;43.10;;;;;;5033691;28;20223;-83
2022/08/23 12:35:08;;;;;;;3.45;1.33;;;35.10;42.70;;;;;;5045596;28;20530;-82
2022/08/23 12:37:47;;;;;;;2.40;1.08;;;34.90;42.40;;;;;;5043762;28;20228;-82
2022/08/23 12:40:22;;;;;;;2.05;1.17;;;34.80;41.90;;;;;;5043897;28;20212;-82
2022/08/23 12:42:50;;;;;;;1.73;1.20;;;34.60;42.60;;;;;;5027774;28;20250;-82
2022/08/23 12:45:21;;;;;;;1.55;1.00;;;34.40;42.30;;;;;;5021603;28;20263;-83
2022/08/23 12:47:56;;;;;;;2.22;1.30;;;34.20;41.80;;;;;;5026127;28;20224;-82
2022/08/23 12:50:27;;;;;;;1.63;1.08;;;34.00;41.90;;;;;;5025955;28;20228;-82
2022/08/23 12:52:59;;;;;;;2.17;1.08;;;33.90;41.70;;;;;;5023809;28;20225;-81
2022/08/23 12:55:33;;;;;;;2.35;1.05;;;33.80;42.50;;;;;;5025917;28;21875;-83
2022/08/23 12:58:00;;;;;;;3.75;1.08;;;33.70;42.40;;;;;;5028414;28;20270;-81
2022/08/23 13:00:31;;;;;;;2.80;1.42;;;33.70;43.80;;;;;;5021132;28;20244;-84
2022/08/23 13:03:02;;;;;;;2.78;1.30;;;33.70;43.20;;;;;;5017852;28;20233;-83
2022/08/23 13:05:38;;;;;;;3.30;1.27;;;33.80;42.60;;;;;;5021566;28;20259;-82
2022/08/23 13:08:09;;;;;;;2.60;1.58;;;34.00;42.70;;;;;;5019068;28;20244;-82
2022/08/23 13:10:41;;;;;;;2.60;1.10;;;34.10;42.00;;;;;;5024554;28;20286;-82
2022/08/23 13:13:11;;;;;;;1.38;0.88;;;34.20;41.10;;;;;;5040056;28;20229;-82
2022/08/23 13:15:43;;;;;;;2.25;1.10;;;34.20;41.60;;;;;;5017143;28;20221;-82
2022/08/23 13:18:10;;;;;;;2.25;1.40;;;34.20;41.30;;;;;;5039818;28;20631;-82
2022/08/23 13:20:37;;;;;;;3.03;1.33;;;34.20;41.20;;;;;;5026003;28;20304;-82
2022/08/23 13:23:08;;;;;;;2.55;1.20;;;34.10;41.30;;;;;;5036837;28;20225;-81
2022/08/23 13:25:37;;;;;;;2.45;1.38;;;34.20;41.30;;;;;;5023820;28;20220;-82
2022/08/23 13:28:09;;;;;;;2.20;1.33;;;34.10;41.70;;;;;;5023288;28;20230;-81
2022/08/23 13:30:37;;;;;;;2.63;1.15;;;34.10;41.70;;;;;;5022014;28;20327;-82